Погода Поцепна 2 недели

Тверская область, Россия

19 мая-01 июня
  • 19мая
    Сегодня
    +8°
    +21°
    Ясно и безоблачно
    ВремяПогодаТемператураВлажностьДавлениеВетер, м/сВероятность осадков
    00:00Ясно и безоблачно+7°C75 %748 мм2.2 м/с2 %
    03:00Ясно и безоблачно+5°C69 %748 мм2.3 м/с2 %
    06:00Ясно и безоблачно+8°C73 %748 мм2.7 м/с2 %
    09:00Ясно и безоблачно+16°C59 %748 мм2.3 м/с2 %
    12:00Ясно и безоблачно+20°C42 %748 мм2.8 м/с2 %
    15:00Ясно и безоблачно+21°C40 %747 мм3.1 м/с2 %
    18:00Ясно и безоблачно+20°C43 %746 мм2.8 м/с2 %
    21:00Ясно и безоблачно+13°C60 %745 мм2.9 м/с2 %
  • 20мая
    Понедельник
    +8°
    +23°
    Практически безоблачно
    ВремяПогодаТемператураВлажностьДавлениеВетер, м/сВероятность осадков
    00:00Ясно и безоблачно+10°C58 %745 мм4.2 м/с2 %
    03:00Ясно и безоблачно+8°C71 %745 мм3.6 м/с2 %
    06:00Ясно и безоблачно+11°C77 %745 мм3.4 м/с2 %
    09:00Ясно и безоблачно+19°C62 %745 мм2.6 м/с2 %
    12:00Практически безоблачно+23°C44 %745 мм3.8 м/с2 %
    15:00Практически безоблачно+21°C39 %744 мм4.5 м/с11 %
    18:00Облачно с прояснениями+21°C44 %744 мм4.8 м/с22 %
    21:00Облачно с прояснениями+14°C78 %745 мм2.1 м/с12 %
  • 21мая
    Вторник
    +6°
    +21°
    Небольшая облачность
    ВремяПогодаТемператураВлажностьДавлениеВетер, м/сВероятность осадков
    00:00Ясно и безоблачно+11°C93 %745 мм2.4 м/с3 %
    03:00Ясно и безоблачно+9°C98 %745 мм1.7 м/с3 %
    06:00Практически безоблачно+12°C89 %747 мм2.3 м/с4 %
    09:00Ясно и безоблачно+17°C59 %747 мм1.2 м/с3 %
    12:00Практически безоблачно+20°C53 %748 мм1.6 м/с7 %
    15:00Небольшая облачность+20°C47 %747 мм2.2 м/с8 %
    18:00Ясно и безоблачно+20°C41 %747 мм3.2 м/с4 %
    21:00Ясно и безоблачно+13°C53 %748 мм2.4 м/с2 %
  • 22мая
    Среда
    +3°
    +17°
    Ясно и безоблачно
    ВремяПогодаТемператураВлажностьДавлениеВетер, м/сВероятность осадков
    00:00Ясно и безоблачно+8°C61 %748 мм2.1 м/с2 %
    03:00Ясно и безоблачно+7°C60 %749 мм3.5 м/с2 %
    06:00Ясно и безоблачно+9°C69 %750 мм3.5 м/с2 %
    09:00Ясно и безоблачно+15°C55 %751 мм4.6 м/с2 %
    12:00Ясно и безоблачно+17°C43 %751 мм5.0 м/с2 %
    15:00Ясно и безоблачно+17°C39 %751 мм4.7 м/с2 %
    18:00Ясно и безоблачно+15°C36 %752 мм5.1 м/с2 %
    21:00Ясно и безоблачно+9°C52 %752 мм2.4 м/с2 %
  • 23мая
    Четверг
    +3°
    +16°
    Ясно и безоблачно
    ВремяПогодаТемператураВлажностьДавлениеВетер, м/сВероятность осадков
    00:00Ясно и безоблачно+6°C53 %753 мм2.6 м/с2 %
    03:00Ясно и безоблачно+4°C58 %754 мм2.1 м/с2 %
    06:00Ясно и безоблачно+6°C63 %755 мм1.8 м/с2 %
    09:00Ясно и безоблачно+13°C37 %756 мм2.3 м/с2 %
    12:00Ясно и безоблачно+15°C34 %757 мм2.1 м/с2 %
    15:00Ясно и безоблачно+16°C34 %756 мм1.3 м/с2 %
    18:00Ясно и безоблачно+16°C35 %755 мм1.3 м/с2 %
    21:00Ясно и безоблачно+10°C50 %755 мм2.2 м/с2 %
Мы используем cookies
Соглашаюсь